Terminal Aerodrome Forecast
Issued by NWS Mt. Holly, NJ

Home | Current Version | Previous Version | Text Only | Print | Product List | Glossary On
Versions: 1 2 3 4 5 6 7 8 9 10 11 12 13 14 15 16 17 18 19 20 21 22 23 24 25 26 27 28 29 30 31
000
FTUS41 KPHI 011700
TAFPHL
TAF
KPHL 011738Z 0118/0224 23008KT P6SM SCT025 BKN060
      TEMPO 0120/0124 5SM -SHRA
     FM020000 24007KT P6SM SCT050 BKN100
     FM020400 24005KT P6SM FEW050 SCT100
      TEMPO 0210/0213 6SM BR
     FM021400 23007KT P6SM SCT200
     FM021800 24011KT P6SM SCT050 BKN200=

USA.gov is the U.S. government's official web portal to all federal, state and local government web resources and services.